Time;durP1;ratioP1;P1;durP2;ratioP2;P2;SDS_P1;SDS_P2;PMS_P1;PMS_P2;Temp;Humidity;BMP_temperature;BMP_pressure;BME280_temperature;BME280_humidity;BME280_pressure;Samples;Min_cycle;Max_cycle;Signal;HPM_P1;HPM_P2
2022/12/18 00:00:48;;;;;;;13.65;6.57;;;;;;;;;;4974932;28;20070;-77
2022/12/18 00:03:15;;;;;;;13.00;6.50;;;;;;;;;;4976599;28;20031;-78
2022/12/18 00:05:51;;;;;;;12.23;5.63;;;;;;;;;;4973480;28;20054;-78
2022/12/18 00:08:17;;;;;;;13.90;5.65;;;;;;;;;;4975861;28;20082;-78
2022/12/18 00:10:43;;;;;;;10.82;5.57;;;;;;;;;;4974899;28;20050;-79
2022/12/18 00:13:10;;;;;;;13.02;6.45;;;;;;;;;;4976087;28;20031;-78
2022/12/18 00:15:36;;;;;;;13.27;6.03;;;;;;;;;;4974903;28;20117;-78
2022/12/18 00:18:03;;;;;;;11.73;5.28;;;;;;;;;;4975171;28;20037;-78
2022/12/18 00:20:29;;;;;;;12.45;6.03;;;;;;;;;;4975127;28;20030;-77
2022/12/18 00:22:55;;;;;;;14.10;6.10;;;;;;;;;;4982027;28;20042;-77
2022/12/18 00:25:21;;;;;;;11.10;5.97;;;;;;;;;;4977436;28;20078;-78
2022/12/18 00:27:47;;;;;;;13.88;6.72;;;;;;;;;;4973714;28;20034;-77
2022/12/18 00:30:13;;;;;;;12.75;6.03;;;;;;;;;;4957654;28;20396;-78
2022/12/18 00:32:39;;;;;;;12.77;6.30;;;;;;;;;;4975636;28;20027;-78
2022/12/18 00:35:08;;;;;;;12.45;6.35;;;;;;;;;;4976370;28;20191;-78
2022/12/18 00:37:34;;;;;;;13.27;5.60;;;;;;;;;;4976227;28;20026;-79
2022/12/18 00:40:01;;;;;;;10.90;5.68;;;;;;;;;;4976457;28;20050;-79
2022/12/18 00:45:11;;;;;;;13.77;5.32;;;;;;;;;;4975584;28;20548;-78
2022/12/18 00:47:38;;;;;;;9.10;5.38;;;;;;;;;;4969581;28;20050;-78
2022/12/18 00:50:04;;;;;;;11.30;5.35;;;;;;;;;;4940345;29;20066;-78
2022/12/18 00:52:30;;;;;;;12.63;6.03;;;;;;;;;;4938785;29;20522;-78
2022/12/18 00:54:56;;;;;;;12.00;5.57;;;;;;;;;;4954114;28;20035;-78
2022/12/18 00:57:22;;;;;;;12.43;5.35;;;;;;;;;;4975421;28;20027;-78
2022/12/18 00:59:48;;;;;;;9.90;5.70;;;;;;;;;;4976304;28;20497;-79
2022/12/18 01:02:14;;;;;;;10.07;5.40;;;;;;;;;;4976585;28;20027;-78
2022/12/18 01:04:40;;;;;;;16.15;6.88;;;;;;;;;;4974940;28;20023;-78
2022/12/18 01:07:07;;;;;;;12.90;5.72;;;;;;;;;;4966450;28;20031;-78
2022/12/18 01:09:33;;;;;;;12.93;6.18;;;;;;;;;;4956951;29;20429;-79
2022/12/18 01:11:59;;;;;;;11.45;6.35;;;;;;;;;;4974749;28;20038;-78
2022/12/18 01:14:25;;;;;;;11.82;6.25;;;;;;;;;;4975545;28;20031;-78
2022/12/18 01:16:51;;;;;;;13.00;6.30;;;;;;;;;;4974774;28;20504;-79
2022/12/18 01:19:16;;;;;;;13.00;6.50;;;;;;;;;;4975015;28;20030;-78
2022/12/18 01:21:42;;;;;;;14.98;6.55;;;;;;;;;;4975334;28;20043;-79
2022/12/18 01:24:12;;;;;;;13.50;6.30;;;;;;;;;;4976616;28;20481;-79
2022/12/18 01:26:38;;;;;;;12.73;5.97;;;;;;;;;;4975904;28;20054;-79
2022/12/18 01:29:04;;;;;;;12.95;6.15;;;;;;;;;;4978216;28;20038;-78
2022/12/18 01:31:31;;;;;;;15.98;6.85;;;;;;;;;;4976812;28;20030;-78
2022/12/18 01:33:59;;;;;;;15.57;6.97;;;;;;;;;;4976963;28;20030;-78
2022/12/18 01:36:27;;;;;;;16.88;7.22;;;;;;;;;;4976402;28;20049;-78
2022/12/18 01:38:53;;;;;;;12.77;6.88;;;;;;;;;;4975505;28;20034;-79
2022/12/18 01:41:24;;;;;;;15.98;7.30;;;;;;;;;;4975224;28;20027;-79
2022/12/18 01:43:57;;;;;;;14.73;6.82;;;;;;;;;;4976012;28;20559;-79
2022/12/18 01:46:24;;;;;;;14.57;7.10;;;;;;;;;;4976877;28;20070;-80
2022/12/18 01:48:53;;;;;;;15.50;7.65;;;;;;;;;;4980206;28;20019;-78
2022/12/18 01:51:19;;;;;;;13.02;7.30;;;;;;;;;;4977488;28;20031;-79
2022/12/18 01:53:45;;;;;;;15.32;6.85;;;;;;;;;;4974503;28;20032;-79
2022/12/18 01:56:19;;;;;;;11.20;6.30;;;;;;;;;;4974897;28;20121;-79
2022/12/18 01:58:59;;;;;;;13.43;7.25;;;;;;;;;;4975783;28;20386;-78
2022/12/18 02:01:25;;;;;;;13.57;6.97;;;;;;;;;;4978308;28;20345;-79
2022/12/18 02:03:52;;;;;;;12.88;6.88;;;;;;;;;;4980732;28;20034;-80
2022/12/18 02:06:30;;;;;;;11.82;6.28;;;;;;;;;;4985869;28;20030;-79
2022/12/18 02:09:07;;;;;;;15.80;8.05;;;;;;;;;;4985846;28;20031;-79
2022/12/18 02:11:33;;;;;;;12.63;6.38;;;;;;;;;;4987231;28;20104;-79
2022/12/18 02:14:14;;;;;;;14.32;6.85;;;;;;;;;;4979413;28;20027;-80
2022/12/18 02:16:45;;;;;;;13.35;6.95;;;;;;;;;;4975599;28;20030;-80
2022/12/18 02:19:30;;;;;;;12.57;6.80;;;;;;;;;;4980505;28;20503;-80
2022/12/18 02:22:01;;;;;;;12.43;6.13;;;;;;;;;;4979700;28;20031;-80
2022/12/18 02:24:35;;;;;;;15.65;7.53;;;;;;;;;;4960876;29;20063;-80
2022/12/18 02:27:03;;;;;;;14.63;6.57;;;;;;;;;;4967115;28;20129;-79
2022/12/18 02:29:41;;;;;;;15.40;7.03;;;;;;;;;;4954111;28;20037;-80
2022/12/18 02:32:10;;;;;;;13.52;7.22;;;;;;;;;;4979148;28;20027;-80
2022/12/18 02:34:38;;;;;;;13.68;7.55;;;;;;;;;;4977996;28;20026;-79
2022/12/18 02:37:07;;;;;;;14.50;6.53;;;;;;;;;;4978584;28;20030;-80
2022/12/18 02:39:34;;;;;;;13.50;6.22;;;;;;;;;;4976771;28;20034;-80
2022/12/18 02:42:02;;;;;;;13.30;6.47;;;;;;;;;;4978242;28;20031;-80
2022/12/18 02:44:28;;;;;;;13.43;7.68;;;;;;;;;;4978350;28;20436;-80
2022/12/18 02:46:54;;;;;;;15.98;6.63;;;;;;;;;;4977591;28;20033;-80
2022/12/18 02:49:37;;;;;;;11.60;6.47;;;;;;;;;;4985177;28;20027;-79
2022/12/18 02:52:03;;;;;;;;;;;;;;;;;;4988915;28;20099;-79
2022/12/18 02:54:39;;;;;;;14.68;6.32;;;;;;;;;;4986930;28;19910;-80
2022/12/18 02:57:21;;;;;;;14.57;7.75;;;;;;;;;;4970992;28;20026;-80
2022/12/18 02:59:55;;;;;;;14.18;6.63;;;;;;;;;;4977592;28;20073;-80
2022/12/18 03:02:27;;;;;;;16.42;8.02;;;;;;;;;;4979173;28;20035;-80
2022/12/18 03:04:58;;;;;;;17.10;7.32;;;;;;;;;;4974925;28;20169;-80
2022/12/18 03:07:33;;;;;;;19.52;8.95;;;;;;;;;;4953792;28;20030;-80
2022/12/18 03:10:01;;;;;;;18.40;8.48;;;;;;;;;;4961997;28;20073;-80
2022/12/18 03:12:35;;;;;;;13.38;7.82;;;;;;;;;;4977677;28;20027;-80
2022/12/18 03:15:04;;;;;;;15.25;7.18;;;;;;;;;;4977695;28;20030;-80
2022/12/18 03:17:31;;;;;;;17.65;9.05;;;;;;;;;;4977105;28;20054;-80
2022/12/18 03:19:59;;;;;;;18.58;9.88;;;;;;;;;;4979042;28;20033;-80
2022/12/18 03:22:26;;;;;;;14.13;6.95;;;;;;;;;;4977484;28;20022;-80
2022/12/18 03:24:54;;;;;;;20.77;8.93;;;;;;;;;;4992656;28;20023;-80
2022/12/18 03:27:21;;;;;;;23.13;9.35;;;;;;;;;;4976462;28;20027;-80
2022/12/18 03:29:58;;;;;;;18.83;9.57;;;;;;;;;;4977375;28;20015;-80
2022/12/18 03:32:28;;;;;;;23.23;10.27;;;;;;;;;;4977172;28;20433;-80
2022/12/18 03:34:56;;;;;;;16.40;8.15;;;;;;;;;;4976450;28;20071;-80
2022/12/18 03:37:22;;;;;;;18.73;8.93;;;;;;;;;;4978569;28;20033;-80
2022/12/18 03:39:48;;;;;;;21.80;10.35;;;;;;;;;;4978475;28;20501;-80
2022/12/18 03:42:14;;;;;;;15.43;8.52;;;;;;;;;;4977869;28;20022;-80
2022/12/18 03:44:40;;;;;;;18.60;8.48;;;;;;;;;;4976468;28;20408;-79
2022/12/18 03:47:08;;;;;;;19.13;8.93;;;;;;;;;;4970115;28;20509;-81
2022/12/18 03:49:43;;;;;;;22.35;9.13;;;;;;;;;;4982447;28;20057;-80
2022/12/18 03:52:26;;;;;;;17.17;8.80;;;;;;;;;;4984081;28;20023;-79
2022/12/18 03:54:54;;;;;;;16.35;7.55;;;;;;;;;;4980759;28;20027;-80
2022/12/18 03:57:23;;;;;;;20.35;8.20;;;;;;;;;;4976377;28;20081;-80
2022/12/18 03:59:51;;;;;;;18.85;8.70;;;;;;;;;;4977648;28;20062;-80
2022/12/18 04:02:17;;;;;;;15.93;9.25;;;;;;;;;;4977809;28;20106;-80
2022/12/18 04:04:45;;;;;;;17.15;9.40;;;;;;;;;;4977955;28;20029;-80
2022/12/18 04:07:12;;;;;;;16.23;7.97;;;;;;;;;;4976924;28;20030;-80
2022/12/18 04:09:39;;;;;;;14.25;7.35;;;;;;;;;;4978164;28;20019;-80
2022/12/18 04:12:05;;;;;;;24.38;9.65;;;;;;;;;;4977854;28;20027;-81
2022/12/18 04:14:35;;;;;;;20.48;10.75;;;;;;;;;;4976349;28;20109;-80
2022/12/18 04:17:02;;;;;;;17.98;8.75;;;;;;;;;;4975825;28;20428;-80
2022/12/18 04:19:28;;;;;;;18.83;8.55;;;;;;;;;;4966123;28;20027;-80
2022/12/18 04:21:54;;;;;;;18.00;9.20;;;;;;;;;;4966865;28;20034;-80
2022/12/18 04:24:20;;;;;;;13.65;7.80;;;;;;;;;;4976516;28;20041;-80
2022/12/18 04:26:46;;;;;;;13.65;7.80;;;;;;;;;;4976764;28;20045;-79
2022/12/18 04:29:12;;;;;;;17.55;8.88;;;;;;;;;;4976385;28;20023;-80
2022/12/18 04:31:38;;;;;;;17.98;8.23;;;;;;;;;;4976100;28;20033;-80
2022/12/18 04:34:04;;;;;;;18.70;8.65;;;;;;;;;;4976001;28;20212;-81
2022/12/18 04:36:31;;;;;;;17.30;7.55;;;;;;;;;;4974872;28;20038;-81
2022/12/18 04:38:57;;;;;;;17.75;9.18;;;;;;;;;;4976495;28;20027;-81
2022/12/18 04:41:23;;;;;;;18.48;9.10;;;;;;;;;;4976071;28;20022;-81
2022/12/18 04:43:49;;;;;;;18.08;9.50;;;;;;;;;;4977381;28;20035;-81
2022/12/18 04:46:15;;;;;;;19.60;7.82;;;;;;;;;;4980632;28;20121;-81
2022/12/18 04:48:41;;;;;;;19.70;8.82;;;;;;;;;;4979358;28;20046;-82
2022/12/18 04:51:08;;;;;;;19.67;8.15;;;;;;;;;;4979505;28;20026;-81
2022/12/18 04:53:34;;;;;;;18.88;8.93;;;;;;;;;;4970646;28;20026;-80
2022/12/18 04:56:04;;;;;;;17.58;8.75;;;;;;;;;;4975772;28;20117;-80
2022/12/18 04:58:30;;;;;;;18.50;8.93;;;;;;;;;;4977247;28;20559;-80
2022/12/18 05:00:56;;;;;;;20.85;9.13;;;;;;;;;;4975675;28;20424;-81
2022/12/18 05:03:22;;;;;;;18.75;10.10;;;;;;;;;;4975500;28;20121;-81
2022/12/18 05:05:52;;;;;;;18.98;8.73;;;;;;;;;;4975946;28;20033;-80
2022/12/18 05:08:18;;;;;;;20.00;8.60;;;;;;;;;;4976447;28;20026;-81
2022/12/18 05:10:44;;;;;;;14.57;8.15;;;;;;;;;;4975333;28;20022;-80
2022/12/18 05:13:10;;;;;;;15.00;8.32;;;;;;;;;;4974698;28;20105;-80
2022/12/18 05:15:36;;;;;;;17.15;8.43;;;;;;;;;;4972286;28;20654;-80
2022/12/18 05:18:03;;;;;;;17.63;8.98;;;;;;;;;;4974882;28;20126;-81
2022/12/18 05:20:29;;;;;;;19.23;8.90;;;;;;;;;;4974602;28;20031;-81
2022/12/18 05:22:55;;;;;;;20.45;9.60;;;;;;;;;;4974340;28;20041;-81
2022/12/18 05:25:22;;;;;;;16.42;7.80;;;;;;;;;;4971522;28;20039;-80
2022/12/18 05:27:48;;;;;;;12.55;7.53;;;;;;;;;;4963153;28;20075;-81
2022/12/18 05:30:15;;;;;;;17.23;8.13;;;;;;;;;;4973115;28;20027;-81
2022/12/18 05:32:41;;;;;;;13.93;8.52;;;;;;;;;;4973858;28;20050;-81
2022/12/18 05:35:08;;;;;;;20.05;9.68;;;;;;;;;;4976544;28;20554;-80
2022/12/18 05:37:34;;;;;;;15.90;8.85;;;;;;;;;;4975269;28;20022;-81
2022/12/18 05:40:01;;;;;;;18.33;9.70;;;;;;;;;;4974655;28;20432;-81
2022/12/18 05:42:26;;;;;;;20.77;9.73;;;;;;;;;;4975076;28;20023;-80
2022/12/18 05:44:52;;;;;;;20.23;8.95;;;;;;;;;;4976772;28;20029;-81
2022/12/18 05:47:19;;;;;;;15.23;9.02;;;;;;;;;;4974622;28;20350;-80
2022/12/18 05:49:45;;;;;;;19.52;9.95;;;;;;;;;;4974898;28;20027;-81
2022/12/18 05:52:11;;;;;;;14.85;7.43;;;;;;;;;;4976312;28;20046;-81
2022/12/18 05:54:37;;;;;;;20.52;8.25;;;;;;;;;;4984822;28;20018;-81
2022/12/18 05:57:03;;;;;;;18.05;8.98;;;;;;;;;;4976647;28;20195;-80
2022/12/18 05:59:29;;;;;;;17.92;8.93;;;;;;;;;;4974545;28;20031;-81
2022/12/18 06:01:55;;;;;;;15.55;8.30;;;;;;;;;;4974442;28;20038;-81
2022/12/18 06:04:21;;;;;;;17.02;8.40;;;;;;;;;;4973635;28;20580;-81
2022/12/18 06:06:47;;;;;;;18.02;8.95;;;;;;;;;;4973059;28;20495;-81
2022/12/18 06:09:13;;;;;;;16.05;8.65;;;;;;;;;;4976062;28;20027;-81
2022/12/18 06:11:39;;;;;;;15.80;7.63;;;;;;;;;;4978464;28;20031;-81
2022/12/18 06:14:06;;;;;;;23.02;9.50;;;;;;;;;;4972281;28;20019;-80
2022/12/18 06:16:32;;;;;;;22.95;9.45;;;;;;;;;;4974160;28;20027;-81
2022/12/18 06:18:59;;;;;;;14.48;7.30;;;;;;;;;;4974285;28;20032;-81
2022/12/18 06:21:26;;;;;;;21.77;9.80;;;;;;;;;;4976140;28;20125;-81
2022/12/18 06:23:52;;;;;;;20.02;9.60;;;;;;;;;;4976829;28;20082;-81
2022/12/18 06:26:19;;;;;;;17.23;8.55;;;;;;;;;;4959569;28;20043;-81
2022/12/18 06:28:45;;;;;;;16.85;7.90;;;;;;;;;;4975068;28;20466;-81
2022/12/18 06:31:11;;;;;;;15.90;9.68;;;;;;;;;;4970857;28;20020;-82
2022/12/18 06:33:37;;;;;;;15.27;9.57;;;;;;;;;;4976328;28;20033;-82
2022/12/18 06:36:08;;;;;;;19.08;8.50;;;;;;;;;;4974883;28;20236;-82
2022/12/18 06:38:34;;;;;;;29.80;10.73;;;;;;;;;;4970092;28;20019;-81
2022/12/18 06:41:00;;;;;;;24.08;8.77;;;;;;;;;;4970826;28;20125;-81
2022/12/18 06:43:27;;;;;;;16.25;9.10;;;;;;;;;;4977204;28;20481;-82
2022/12/18 06:45:58;;;;;;;19.08;8.00;;;;;;;;;;4969640;28;20031;-82
2022/12/18 06:48:24;;;;;;;19.05;8.68;;;;;;;;;;4973623;28;20035;-81
2022/12/18 06:50:50;;;;;;;24.15;9.55;;;;;;;;;;4978237;28;20023;-81
2022/12/18 06:53:17;;;;;;;19.88;8.95;;;;;;;;;;4978433;28;20501;-81
2022/12/18 06:55:44;;;;;;;17.30;8.43;;;;;;;;;;4977730;28;20037;-82
2022/12/18 06:58:10;;;;;;;18.40;9.98;;;;;;;;;;4977854;28;20046;-82
2022/12/18 07:00:36;;;;;;;17.65;9.07;;;;;;;;;;4977759;28;20037;-81
2022/12/18 07:03:02;;;;;;;20.13;10.15;;;;;;;;;;4979004;28;20477;-80
2022/12/18 07:05:28;;;;;;;16.95;8.75;;;;;;;;;;4978217;28;20031;-81
2022/12/18 07:07:54;;;;;;;16.63;8.70;;;;;;;;;;4976527;28;20027;-79
2022/12/18 07:10:20;;;;;;;22.83;9.73;;;;;;;;;;4977010;28;20023;-81
2022/12/18 07:12:46;;;;;;;17.80;10.32;;;;;;;;;;4978131;28;20027;-80
2022/12/18 07:15:12;;;;;;;15.93;8.25;;;;;;;;;;4977961;28;20022;-83
2022/12/18 07:17:38;;;;;;;23.27;10.70;;;;;;;;;;4977636;28;20034;-80
2022/12/18 07:20:05;;;;;;;19.38;9.05;;;;;;;;;;4974167;28;20023;-81
2022/12/18 07:22:31;;;;;;;21.25;9.00;;;;;;;;;;4978351;28;20082;-81
2022/12/18 07:24:57;;;;;;;16.77;8.13;;;;;;;;;;4977533;28;20093;-81
2022/12/18 07:27:23;;;;;;;21.17;8.00;;;;;;;;;;4977560;28;20038;-81
2022/12/18 07:29:49;;;;;;;26.58;10.68;;;;;;;;;;4975208;28;20024;-81
2022/12/18 07:32:15;;;;;;;16.88;9.02;;;;;;;;;;4967806;28;20026;-81
2022/12/18 07:34:41;;;;;;;22.00;10.65;;;;;;;;;;4961054;28;20015;-81
2022/12/18 07:37:07;;;;;;;12.98;7.20;;;;;;;;;;4977535;28;20058;-81
2022/12/18 07:39:33;;;;;;;15.30;8.90;;;;;;;;;;4978309;28;20473;-81
2022/12/18 07:44:44;;;;;;;21.67;10.02;;;;;;;;;;4989313;28;20037;-78
2022/12/18 07:47:10;;;;;;;19.55;9.80;;;;;;;;;;4983747;28;20023;-80
2022/12/18 07:49:36;;;;;;;18.48;8.68;;;;;;;;;;4980387;28;20022;-80
2022/12/18 07:52:02;;;;;;;20.50;8.82;;;;;;;;;;4987062;28;20042;-81
2022/12/18 07:54:29;;;;;;;18.25;8.68;;;;;;;;;;4987587;28;20476;-81
2022/12/18 07:56:55;;;;;;;20.58;9.30;;;;;;;;;;4983829;28;20034;-81
2022/12/18 07:59:23;;;;;;;21.75;10.23;;;;;;;;;;4978122;28;20023;-81
2022/12/18 08:01:49;;;;;;;22.05;9.32;;;;;;;;;;4983062;28;20363;-81
2022/12/18 08:04:16;;;;;;;21.38;10.88;;;;;;;;;;4979522;28;20041;-80
2022/12/18 08:06:42;;;;;;;18.83;10.73;;;;;;;;;;4977537;28;20411;-81
2022/12/18 08:09:10;;;;;;;26.55;10.35;;;;;;;;;;4980388;28;20105;-80
2022/12/18 08:11:36;;;;;;;24.02;11.10;;;;;;;;;;4979512;28;20027;-81
2022/12/18 08:14:02;;;;;;;29.60;14.35;;;;;;;;;;4981020;28;20081;-80
2022/12/18 08:16:28;;;;;;;31.33;15.82;;;;;;;;;;4979945;28;20106;-81
2022/12/18 08:18:54;;;;;;;30.23;17.55;;;;;;;;;;4978093;28;20049;-81
2022/12/18 08:21:27;;;;;;;27.00;12.70;;;;;;;;;;4976461;28;20027;-81
2022/12/18 08:23:54;;;;;;;19.63;11.00;;;;;;;;;;4978254;28;20035;-81
2022/12/18 08:26:20;;;;;;;26.35;10.88;;;;;;;;;;4977926;28;20073;-81
2022/12/18 08:28:46;;;;;;;20.98;11.20;;;;;;;;;;4978884;28;20022;-81
2022/12/18 08:31:13;;;;;;;25.70;11.57;;;;;;;;;;4978719;28;20030;-81
2022/12/18 08:33:39;;;;;;;24.17;12.63;;;;;;;;;;4978379;28;20078;-81
2022/12/18 08:36:06;;;;;;;38.88;16.27;;;;;;;;;;4973710;28;20039;-81
2022/12/18 08:38:32;;;;;;;40.05;18.98;;;;;;;;;;4962425;29;20035;-80
2022/12/18 08:41:00;;;;;;;55.72;24.42;;;;;;;;;;4964426;28;20046;-80
2022/12/18 08:46:11;;;;;;;43.40;20.13;;;;;;;;;;4974991;28;20101;-80
2022/12/18 08:48:37;;;;;;;44.03;18.27;;;;;;;;;;4962010;28;20022;-81
2022/12/18 08:51:03;;;;;;;23.73;12.30;;;;;;;;;;4979196;28;20019;-80
2022/12/18 08:53:29;;;;;;;33.25;14.32;;;;;;;;;;4983227;28;20046;-79
2022/12/18 08:55:56;;;;;;;27.15;12.13;;;;;;;;;;4997876;28;20019;-79
2022/12/18 08:58:22;;;;;;;24.88;10.93;;;;;;;;;;4997598;28;20077;-79
2022/12/18 09:00:48;;;;;;;23.75;10.85;;;;;;;;;;4997292;28;20046;-78
2022/12/18 09:03:15;;;;;;;24.02;11.52;;;;;;;;;;4997879;28;20029;-80
2022/12/18 09:05:41;;;;;;;20.05;10.30;;;;;;;;;;4979152;28;20481;-81
2022/12/18 09:08:07;;;;;;;25.45;12.40;;;;;;;;;;4977188;28;20114;-80
2022/12/18 09:10:33;;;;;;;23.58;12.40;;;;;;;;;;4977125;28;20074;-80
2022/12/18 09:12:59;;;;;;;24.08;11.60;;;;;;;;;;4976081;28;20027;-80
2022/12/18 09:15:26;;;;;;;25.98;12.07;;;;;;;;;;4977662;28;20037;-80
2022/12/18 09:17:52;;;;;;;30.27;13.32;;;;;;;;;;4977342;28;20437;-80
2022/12/18 09:20:18;;;;;;;47.10;19.15;;;;;;;;;;4977507;28;20101;-79
2022/12/18 09:22:44;;;;;;;42.40;17.08;;;;;;;;;;4974280;28;20094;-81
2022/12/18 09:25:10;;;;;;;33.42;14.90;;;;;;;;;;4977576;28;20101;-80
2022/12/18 09:27:37;;;;;;;40.67;15.73;;;;;;;;;;4991986;28;20026;-79
2022/12/18 09:30:03;;;;;;;46.17;16.77;;;;;;;;;;4985331;28;20050;-80
2022/12/18 09:32:29;;;;;;;34.50;14.63;;;;;;;;;;5001606;28;20042;-79
2022/12/18 09:34:55;;;;;;;31.10;13.98;;;;;;;;;;4986584;28;20031;-80
2022/12/18 09:37:21;;;;;;;29.42;14.20;;;;;;;;;;4978365;28;20069;-80
2022/12/18 09:39:47;;;;;;;33.63;13.85;;;;;;;;;;4972919;28;20034;-80
2022/12/18 09:42:18;;;;;;;30.08;14.82;;;;;;;;;;4973301;28;20031;-81
2022/12/18 09:44:46;;;;;;;28.70;12.48;;;;;;;;;;4980082;28;20034;-79
2022/12/18 09:47:28;;;;;;;21.75;10.60;;;;;;;;;;4953923;29;20035;-79
2022/12/18 09:49:57;;;;;;;23.45;11.02;;;;;;;;;;4966911;28;20030;-80
2022/12/18 09:52:26;;;;;;;24.42;11.30;;;;;;;;;;4977071;28;20481;-80
2022/12/18 09:54:55;;;;;;;25.98;13.05;;;;;;;;;;4974939;28;20050;-80
2022/12/18 09:57:24;;;;;;;25.30;11.75;;;;;;;;;;4969538;28;20247;-79
2022/12/18 09:59:52;;;;;;;28.23;10.85;;;;;;;;;;4976897;28;20035;-79
2022/12/18 10:02:30;;;;;;;24.92;12.70;;;;;;;;;;4976386;28;20051;-80
2022/12/18 10:04:59;;;;;;;23.13;13.13;;;;;;;;;;4970913;28;20035;-80
2022/12/18 10:07:30;;;;;;;23.73;13.73;;;;;;;;;;4963990;28;20106;-80
2022/12/18 10:09:59;;;;;;;23.33;12.27;;;;;;;;;;4957903;28;20477;-79
2022/12/18 10:12:44;;;;;;;27.42;11.00;;;;;;;;;;4977490;28;20027;-79
2022/12/18 10:15:16;;;;;;;23.77;12.20;;;;;;;;;;4975749;28;20038;-79
2022/12/18 10:17:45;;;;;;;24.80;12.63;;;;;;;;;;4975642;28;20030;-79
2022/12/18 10:20:33;;;;;;;26.70;11.93;;;;;;;;;;4975987;28;20088;-79
2022/12/18 10:23:11;;;;;;;28.42;11.57;;;;;;;;;;4968713;28;20042;-79
2022/12/18 10:25:46;;;;;;;24.75;9.73;;;;;;;;;;4979082;28;20074;-79
2022/12/18 10:28:14;;;;;;;20.48;10.63;;;;;;;;;;4973404;28;20016;-80
2022/12/18 10:30:41;;;;;;;25.98;12.25;;;;;;;;;;4962674;28;20085;-79
2022/12/18 10:33:11;;;;;;;23.27;11.23;;;;;;;;;;4979109;28;20027;-80
2022/12/18 10:35:41;;;;;;;22.98;11.20;;;;;;;;;;4975857;28;20518;-79
2022/12/18 10:38:13;;;;;;;20.83;11.02;;;;;;;;;;4974612;28;20037;-80
2022/12/18 10:40:50;;;;;;;19.20;11.18;;;;;;;;;;4978430;28;20303;-80
2022/12/18 10:43:16;;;;;;;18.98;10.35;;;;;;;;;;4978887;28;20058;-79
2022/12/18 10:45:56;;;;;;;20.20;11.00;;;;;;;;;;4943350;29;20533;-80
2022/12/18 10:48:22;;;;;;;22.27;11.00;;;;;;;;;;4948550;28;20045;-78
2022/12/18 10:50:50;;;;;;;26.52;11.35;;;;;;;;;;4960260;28;20023;-78
2022/12/18 10:53:23;;;;;;;24.88;10.75;;;;;;;;;;4977080;28;20019;-79
2022/12/18 10:55:50;;;;;;;21.83;11.90;;;;;;;;;;4978883;28;20336;-79
2022/12/18 10:58:31;;;;;;;24.73;12.55;;;;;;;;;;4958417;28;20512;-79
2022/12/18 11:01:08;;;;;;;42.58;13.23;;;;;;;;;;4967947;28;20035;-80
2022/12/18 11:03:35;;;;;;;31.02;12.93;;;;;;;;;;4980387;28;20244;-80
2022/12/18 11:06:15;;;;;;;20.77;11.00;;;;;;;;;;4979612;28;20035;-80
2022/12/18 11:08:42;;;;;;;21.92;10.27;;;;;;;;;;4979438;28;20027;-80
2022/12/18 11:11:28;;;;;;;23.27;10.73;;;;;;;;;;4978723;28;20476;-80
2022/12/18 11:14:13;;;;;;;22.17;11.68;;;;;;;;;;4962021;28;20027;-80
2022/12/18 11:16:47;;;;;;;24.02;11.90;;;;;;;;;;4978935;28;20042;-80
2022/12/18 11:19:16;;;;;;;25.60;10.13;;;;;;;;;;4981375;28;20065;-80
2022/12/18 11:21:42;;;;;;;18.48;9.75;;;;;;;;;;4978344;28;20263;-80
2022/12/18 11:24:18;;;;;;;24.50;11.60;;;;;;;;;;4975432;28;20304;-80
2022/12/18 11:26:44;;;;;;;27.00;11.02;;;;;;;;;;4974161;28;20051;-79
2022/12/18 11:29:16;;;;;;;21.63;10.48;;;;;;;;;;4958954;29;20027;-80
2022/12/18 11:31:42;;;;;;;21.45;9.70;;;;;;;;;;4976811;28;20461;-79
2022/12/18 11:34:28;;;;;;;24.00;10.75;;;;;;;;;;4975017;28;20033;-80
2022/12/18 11:36:55;;;;;;;21.63;11.20;;;;;;;;;;4958822;28;20611;-79
2022/12/18 11:39:39;;;;;;;25.27;11.23;;;;;;;;;;4961348;28;20023;-80
2022/12/18 11:42:09;;;;;;;20.90;10.32;;;;;;;;;;4975567;28;20031;-80
2022/12/18 11:44:47;;;;;;;23.27;10.32;;;;;;;;;;4984073;28;20038;-80
2022/12/18 11:47:22;;;;;;;24.65;13.23;;;;;;;;;;4971508;28;20035;-80
2022/12/18 11:49:49;;;;;;;25.13;11.65;;;;;;;;;;4956427;28;20092;-80
2022/12/18 11:52:15;;;;;;;19.67;9.90;;;;;;;;;;4973103;28;20027;-79
2022/12/18 11:54:41;;;;;;;32.22;12.63;;;;;;;;;;4974357;28;20031;-79
2022/12/18 11:57:07;;;;;;;23.77;12.07;;;;;;;;;;4978944;28;20050;-80
2022/12/18 11:59:36;;;;;;;29.20;12.65;;;;;;;;;;4977098;28;20485;-80
2022/12/18 12:02:38;;;;;;;21.75;10.80;;;;;;;;;;4977075;28;20126;-80
2022/12/18 12:05:19;;;;;;;24.52;10.70;;;;;;;;;;4902081;29;20028;-80
2022/12/18 12:07:47;;;;;;;26.70;12.23;;;;;;;;;;4902666;29;20040;-79
2022/12/18 12:10:16;;;;;;;22.13;11.20;;;;;;;;;;4919068;29;20028;-80
2022/12/18 12:12:54;;;;;;;21.58;12.15;;;;;;;;;;4917227;29;20213;-80
2022/12/18 12:15:26;;;;;;;24.50;11.10;;;;;;;;;;4915489;29;20143;-80
2022/12/18 12:17:52;;;;;;;28.58;11.02;;;;;;;;;;4917443;29;20115;-80
2022/12/18 12:20:21;;;;;;;25.02;10.27;;;;;;;;;;4915003;29;20118;-80
2022/12/18 12:22:55;;;;;;;20.70;10.25;;;;;;;;;;4918625;29;20024;-80
2022/12/18 12:25:23;;;;;;;24.23;10.27;;;;;;;;;;4915254;29;20107;-80
2022/12/18 12:27:49;;;;;;;35.13;14.07;;;;;;;;;;4909626;29;20072;-80
2022/12/18 12:30:25;;;;;;;22.73;10.10;;;;;;;;;;4918450;29;20032;-80
2022/12/18 12:33:03;;;;;;;24.20;11.63;;;;;;;;;;4915758;29;20076;-80
2022/12/18 12:35:37;;;;;;;21.55;9.18;;;;;;;;;;4899459;29;20515;-80
2022/12/18 12:38:19;;;;;;;28.45;12.73;;;;;;;;;;4919458;28;20169;-80
2022/12/18 12:40:49;;;;;;;30.27;13.85;;;;;;;;;;4972216;28;20299;-79
2022/12/18 12:43:27;;;;;;;38.67;13.90;;;;;;;;;;4956717;28;20031;-80
2022/12/18 12:45:53;;;;;;;36.97;14.23;;;;;;;;;;4973023;28;20041;-80
2022/12/18 12:48:40;;;;;;;25.13;12.88;;;;;;;;;;4983329;28;20047;-79
2022/12/18 12:51:26;;;;;;;24.92;11.63;;;;;;;;;;4960379;28;20102;-79
2022/12/18 12:53:53;;;;;;;24.67;11.27;;;;;;;;;;4976829;28;20019;-80
2022/12/18 12:56:21;;;;;;;24.17;11.35;;;;;;;;;;4978529;28;20043;-80
2022/12/18 12:58:55;;;;;;;23.63;11.55;;;;;;;;;;4968533;28;20050;-80
2022/12/18 13:01:37;;;;;;;20.65;10.68;;;;;;;;;;4978553;28;20030;-80
2022/12/18 13:04:12;;;;;;;21.65;11.30;;;;;;;;;;4958331;28;20031;-79
2022/12/18 13:06:42;;;;;;;24.02;11.10;;;;;;;;;;4964011;28;20066;-80
2022/12/18 13:09:08;;;;;;;22.02;10.20;;;;;;;;;;4976345;28;20034;-80
2022/12/18 13:14:31;;;;;;;24.30;9.57;;;;;;;;;;4971655;28;20046;-80
2022/12/18 13:17:16;;;;;;;29.23;11.82;;;;;;;;;;4969744;28;20102;-79
2022/12/18 13:19:43;;;;;;;27.50;12.02;;;;;;;;;;4967604;28;20141;-80
2022/12/18 13:22:28;;;;;;;24.70;10.90;;;;;;;;;;4975095;28;20591;-79
2022/12/18 13:24:54;;;;;;;20.75;10.82;;;;;;;;;;4976108;28;20054;-79
2022/12/18 13:27:39;;;;;;;23.98;11.48;;;;;;;;;;4974870;28;20031;-80
2022/12/18 13:30:25;;;;;;;25.42;11.43;;;;;;;;;;4970862;28;20023;-80
2022/12/18 13:33:11;;;;;;;29.90;11.75;;;;;;;;;;4976456;28;20062;-80
2022/12/18 13:35:38;;;;;;;21.08;10.18;;;;;;;;;;4977073;28;20509;-79
2022/12/18 13:38:20;;;;;;;25.58;11.60;;;;;;;;;;4966278;28;20106;-79
2022/12/18 13:40:47;;;;;;;27.23;11.80;;;;;;;;;;4980719;28;20027;-79
2022/12/18 13:43:19;;;;;;;22.70;11.27;;;;;;;;;;4978713;28;20197;-79
2022/12/18 13:45:55;;;;;;;26.75;11.30;;;;;;;;;;4973735;28;20133;-79
2022/12/18 13:48:25;;;;;;;27.38;11.45;;;;;;;;;;4975928;28;20026;-79
2022/12/18 13:50:53;;;;;;;30.08;12.93;;;;;;;;;;4971305;28;20588;-79
2022/12/18 13:53:21;;;;;;;27.40;11.50;;;;;;;;;;4968385;28;20058;-79
2022/12/18 13:55:47;;;;;;;29.77;11.50;;;;;;;;;;4975265;28;20031;-79
2022/12/18 13:58:13;;;;;;;24.00;11.40;;;;;;;;;;4975177;28;20403;-79
2022/12/18 14:00:43;;;;;;;28.60;12.40;;;;;;;;;;4957550;29;20035;-80
2022/12/18 14:03:26;;;;;;;27.77;10.73;;;;;;;;;;4972794;28;20034;-81
2022/12/18 14:05:56;;;;;;;23.67;10.77;;;;;;;;;;4976826;28;20097;-80
2022/12/18 14:08:23;;;;;;;29.42;12.43;;;;;;;;;;4977374;28;20496;-80
2022/12/18 14:10:52;;;;;;;22.40;11.88;;;;;;;;;;4971711;28;20030;-79
2022/12/18 14:13:23;;;;;;;27.63;11.65;;;;;;;;;;4973312;28;20027;-79
2022/12/18 14:15:50;;;;;;;28.57;12.23;;;;;;;;;;4975401;28;20134;-79
2022/12/18 14:18:16;;;;;;;29.70;14.18;;;;;;;;;;4976259;28;20270;-79
2022/12/18 14:20:44;;;;;;;24.38;11.43;;;;;;;;;;4975081;28;20137;-79
2022/12/18 14:23:30;;;;;;;28.92;11.43;;;;;;;;;;4986386;28;20118;-79
2022/12/18 14:25:56;;;;;;;30.00;12.65;;;;;;;;;;4966191;28;21420;-78
2022/12/18 14:28:22;;;;;;;32.95;12.20;;;;;;;;;;4974257;28;20027;-79
2022/12/18 14:30:48;;;;;;;29.67;14.30;;;;;;;;;;4962553;28;20038;-79
2022/12/18 14:33:18;;;;;;;28.40;11.13;;;;;;;;;;4969777;28;20026;-79
2022/12/18 14:36:01;;;;;;;32.53;11.75;;;;;;;;;;4975707;28;20031;-79
2022/12/18 14:38:27;;;;;;;;;;;;;;;;;;4982133;28;20042;-78
2022/12/18 14:41:06;;;;;;;20.58;9.73;;;;;;;;;;4961700;28;19910;-78
2022/12/18 14:43:34;;;;;;;26.85;11.05;;;;;;;;;;4972872;28;20253;-79
2022/12/18 14:46:00;;;;;;;28.23;11.55;;;;;;;;;;4972486;28;20046;-78